Terminal Aerodrome Forecast
Issued by NWS Greer, SC

Current Version | Previous Version | Text Only | Print | Product List | Glossary On
Versions: 1 2 3 4 5 6 7 8 9 10 11 12 13 14 15
000
FTUS42 KGSP 210529
TAFAVL
TAF
KAVL 210529Z 2106/2206 VRB03KT P6SM BKN250
     FM211500 16006KT P6SM BKN035
     FM220100 14004KT P6SM OVC025 PROB30 2201/2206 2SM -RA OVC007=

USA.gov is the U.S. government's official web portal to all federal, state and local government web resources and services.